WSSS/SIN METAR and TAF weather

Enter ICAO airport designator
Station Type Date Time Source
WSSS METAR 2022/11/30 10:00 UTC NOAA

WSSS 301000Z 34007KT 300V360 3000 TSRA FEW010 FEW015CB SCT016TCU 23/23 Q1008 RESHRA BECMG TL1030 6000 NSW


Station Type Date Time Source
WSSS Decoded METAR 2022/11/30 10:00 UTC NOAA

Singapore / Changi Airport, Singapore (WSSS) 01-22N 103-59E 16M
Nov 30, 2022 - 05:00 AM EST / 2022.11.30 1000 UTC
Wind: from the NNW (340 degrees) at 8 MPH (7 KT) (direction variable):0
Visibility: 1 mile(s):0
Sky conditions: partly cloudy
Weather: rain with thunder; Cumulonimbus clouds, towering cumulus clouds observed
Temperature: 73 F (23 C)
Dew Point: 73 F (23 C)
Relative Humidity: 100%
Pressure (altimeter): 29.77 in. Hg (1008 hPa)
ob: WSSS 301000Z 34007KT 300V360 3000 TSRA FEW010 FEW015CB SCT016TCU 23/23 Q1008 RESHRA BECMG TL1030 6000 NSW
cycle: 10

Station Type Date Time Source
WSSS TAF 2022/11/30 08:04 UTC NOAA

TAF
AMD WSSS 300800Z 3008/0112 35007KT 9999 FEW015 BKN020
TEMPO 3008/3010 3000 TSRA FEW012CB BKN015

Example: see airport list